New Richmond Regional Airport
KRNH : now visible

Airfield :











YOU CAN JOIN US ON...

 
LOGIN :

Register | Disclaimer

   EN    FR    IT 

 









Legend :    VFR   Marginal VFR   IFR   Intensive IFR   Very Intensive IFR
Visi :
Ceiling :
>= 8 km
>= 3000ft
5 to 8 km
1000 to 3000 ft
1500m to 5 km
500 to 1000 ft
800 to 1500m
200 to 500 ft
< 800m
< 200 ft
Symbols :   Thunderstorms  Fog  Heavy snow  Heavy precipitations  Wind > 20 kt






- Airport Elevation : 998 ft


KRNH - New Richmond Regional

CURRENT METAR :
  • 260055Z AUTO 21004KT 10SM CLR 24/16 A2986 RMK AO2 T02370157

EXPIRED METARs :
  • 260035Z AUTO 20005KT 10SM CLR 24/16 A2986 RMK AO2 T02410155
  • 260015Z AUTO 20004KT 10SM CLR 25/15 A2985 RMK AO2 T02520151
  • 252355Z AUTO 00000KT 10SM CLR 26/15 A2985 RMK AO2 T02570150 10261 20222
  • 252335Z AUTO 24005KT 10SM CLR 26/15 A2984 RMK AO2 T02570152
  • 252315Z AUTO 22005KT 10SM CLR 26/15 A2984 RMK AO2 T02600149
  • 252255Z AUTO 21005KT 10SM CLR 26/15 A2984 RMK AO2 T02560151
  • 252235Z AUTO 23007KT 10SM SCT036 SCT045 SCT055 26/15 A2985 RMK AO2 T02560154
  • 252215Z AUTO 19005KT 10SM SCT036 BKN075 25/16 A2985 RMK AO2 T02510158

TAF KRNH
Valid from the 26 at 00:00 until the 27 at 00:00 UTC


252320Z 2600/2624 00000KT P6SM SCT090
TEMPO 2605/2609 4SM TSRA BR OVC025CB
FM260900 14005KT P6SM OVC030
FM261400 17009KT P6SM BKN018
FM262200 22006KT 6SM -SHRA BKN045
KZMP FIR / North America



MET'MAP, your aeronautical weather chart ! - Copyright ORBIFLY December 2007 - Disclaimer

ORBIFLY MET'MAP TEAM :

Programming & Development : Alexandra Zaïnal
Concept & original design : Baudouin d'Aumeries
Assistance for programming : Marc-Olivier Méhu
Technical & hardware support : Manuel Goepfert

Contact : metmap@orbifly.com




SOURCES & CREDITS :

   NOAA       Earth
Advisory